sensor_id;sensor_type;location;lat;lon;timestamp;pressure;altitude;pressure_sealevel;temperature;humidity
31225;BME280;17847;31.524;74.366;2023-03-19T00:00:47;98598.03;;;20.08;65.03
31225;BME280;17847;31.524;74.366;2023-03-19T00:03:43;98596.66;;;20.05;64.85
31225;BME280;17847;31.524;74.366;2023-03-19T00:06:19;98599.91;;;20.07;64.83
31225;BME280;17847;31.524;74.366;2023-03-19T00:09:15;98598.09;;;20.13;64.82
31225;BME280;17847;31.524;74.366;2023-03-19T00:11:57;98589.50;;;20.16;64.36
31225;BME280;17847;31.524;74.366;2023-03-19T00:14:53;98587.00;;;20.09;64.23
31225;BME280;17847;31.524;74.366;2023-03-19T00:17:35;98581.34;;;20.06;64.16
31225;BME280;17847;31.524;74.366;2023-03-19T00:20:33;98575.16;;;20.05;64.19
31225;BME280;17847;31.524;74.366;2023-03-19T00:23:15;98579.50;;;20.11;64.32
31225;BME280;17847;31.524;74.366;2023-03-19T00:26:05;98574.13;;;20.11;63.76
31225;BME280;17847;31.524;74.366;2023-03-19T00:28:48;98587.34;;;20.13;63.70
31225;BME280;17847;31.524;74.366;2023-03-19T00:31:37;98584.94;;;20.16;63.71
31225;BME280;17847;31.524;74.366;2023-03-19T00:34:20;98579.00;;;20.14;63.42
31225;BME280;17847;31.524;74.366;2023-03-19T00:37:09;98579.56;;;20.16;63.45
31225;BME280;17847;31.524;74.366;2023-03-19T00:39:52;98575.25;;;20.15;63.12
31225;BME280;17847;31.524;74.366;2023-03-19T00:42:48;98576.88;;;20.16;63.20
31225;BME280;17847;31.524;74.366;2023-03-19T00:45:29;98572.53;;;20.15;63.04
31225;BME280;17847;31.524;74.366;2023-03-19T00:48:19;98577.06;;;20.10;63.08
31225;BME280;17847;31.524;74.366;2023-03-19T00:51:09;98574.84;;;20.02;63.09
31225;BME280;17847;31.524;74.366;2023-03-19T00:53:52;98587.25;;;20.03;63.12
31225;BME280;17847;31.524;74.366;2023-03-19T00:56:41;98579.19;;;20.03;63.13
31225;BME280;17847;31.524;74.366;2023-03-19T00:59:26;98589.69;;;20.04;63.07
31225;BME280;17847;31.524;74.366;2023-03-19T01:02:15;98594.50;;;20.02;62.88
31225;BME280;17847;31.524;74.366;2023-03-19T01:04:58;98598.81;;;20.03;62.94
31225;BME280;17847;31.524;74.366;2023-03-19T01:07:47;98600.16;;;20.06;63.10
31225;BME280;17847;31.524;74.366;2023-03-19T01:10:32;98609.81;;;20.02;62.69
31225;BME280;17847;31.524;74.366;2023-03-19T01:13:28;98607.63;;;19.99;63.05
31225;BME280;17847;31.524;74.366;2023-03-19T01:16:10;98614.06;;;19.98;62.85
31225;BME280;17847;31.524;74.366;2023-03-19T01:19:06;98608.16;;;19.96;62.87
31225;BME280;17847;31.524;74.366;2023-03-19T01:21:49;98609.75;;;19.97;62.91
31225;BME280;17847;31.524;74.366;2023-03-19T01:24:47;98613.78;;;19.94;63.09
31225;BME280;17847;31.524;74.366;2023-03-19T01:27:30;98615.94;;;19.97;62.97
31225;BME280;17847;31.524;74.366;2023-03-19T01:30:27;98624.78;;;19.93;62.97
31225;BME280;17847;31.524;74.366;2023-03-19T01:33:29;98625.13;;;20.01;62.96
31225;BME280;17847;31.524;74.366;2023-03-19T01:36:28;98624.28;;;19.96;63.01
31225;BME280;17847;31.524;74.366;2023-03-19T01:39:05;98623.72;;;19.94;62.99
31225;BME280;17847;31.524;74.366;2023-03-19T01:42:02;98633.72;;;19.98;63.08
31225;BME280;17847;31.524;74.366;2023-03-19T01:44:55;98633.19;;;20.01;nan
31225;BME280;17847;31.524;74.366;2023-03-19T01:48:23;98642.69;;;20.09;62.89
31225;BME280;17847;31.524;74.366;2023-03-19T01:51:35;98632.47;;;20.11;62.98
31225;BME280;17847;31.524;74.366;2023-03-19T01:54:46;98628.69;;;20.07;62.92
31225;BME280;17847;31.524;74.366;2023-03-19T01:57:57;98643.75;;;20.08;62.92
31225;BME280;17847;31.524;74.366;2023-03-19T02:01:17;98649.81;;;20.25;62.71
31225;BME280;17847;31.524;74.366;2023-03-19T02:03:54;98643.34;;;20.21;62.75
31225;BME280;17847;31.524;74.366;2023-03-19T02:06:54;98640.69;;;20.26;62.62
31225;BME280;17847;31.524;74.366;2023-03-19T02:09:31;98648.03;;;20.36;62.38
31225;BME280;17847;31.524;74.366;2023-03-19T02:12:28;98651.09;;;20.49;61.95
31225;BME280;17847;31.524;74.366;2023-03-19T02:15:04;98658.28;;;20.71;61.46
31225;BME280;17847;31.524;74.366;2023-03-19T02:18:00;98663.69;;;21.18;60.14
31225;BME280;17847;31.524;74.366;2023-03-19T02:26:40;98667.28;;;22.31;55.97
31225;BME280;17847;31.524;74.366;2023-03-19T02:29:37;98677.81;;;22.37;55.65
31225;BME280;17847;31.524;74.366;2023-03-19T02:32:23;98687.53;;;22.33;55.77
31225;BME280;17847;31.524;74.366;2023-03-19T02:35:12;98692.13;;;22.43;55.68
31225;BME280;17847;31.524;74.366;2023-03-19T02:37:47;98686.19;;;22.81;54.72
31225;BME280;17847;31.524;74.366;2023-03-19T02:40:55;98691.19;;;23.49;53.05
31225;BME280;17847;31.524;74.366;2023-03-19T02:43:42;98693.06;;;23.43;52.58
31225;BME280;17847;31.524;74.366;2023-03-19T02:46:32;98696.94;;;23.07;53.40
31225;BME280;17847;31.524;74.366;2023-03-19T02:49:15;98696.19;;;22.91;54.01
31225;BME280;17847;31.524;74.366;2023-03-19T02:52:05;98699.16;;;22.95;54.09
31225;BME280;17847;31.524;74.366;2023-03-19T02:54:48;98710.19;;;23.18;53.90
31225;BME280;17847;31.524;74.366;2023-03-19T02:57:30;98710.19;;;23.18;53.54
31225;BME280;17847;31.524;74.366;2023-03-19T03:00:19;98713.72;;;23.14;53.61
31225;BME280;17847;31.524;74.366;2023-03-19T03:03:02;98713.47;;;22.95;53.86
31225;BME280;17847;31.524;74.366;2023-03-19T03:06:00;98716.94;;;22.45;55.09
31225;BME280;17847;31.524;74.366;2023-03-19T03:08:43;98707.50;;;22.48;55.13
31225;BME280;17847;31.524;74.366;2023-03-19T03:11:32;98707.75;;;22.36;55.55
31225;BME280;17847;31.524;74.366;2023-03-19T03:14:15;98716.94;;;22.40;55.77
31225;BME280;17847;31.524;74.366;2023-03-19T03:17:04;98725.03;;;22.30;56.15
31225;BME280;17847;31.524;74.366;2023-03-19T03:19:49;98723.69;;;22.32;55.94
31225;BME280;17847;31.524;74.366;2023-03-19T03:22:39;98723.69;;;22.53;55.72
31225;BME280;17847;31.524;74.366;2023-03-19T03:25:22;98721.00;;;22.37;55.81
31225;BME280;17847;31.524;74.366;2023-03-19T03:28:18;98718.56;;;22.46;56.07
31225;BME280;17847;31.524;74.366;2023-03-19T03:31:01;98718.28;;;22.53;56.01
31225;BME280;17847;31.524;74.366;2023-03-19T03:33:51;98723.69;;;22.58;56.17
31225;BME280;17847;31.524;74.366;2023-03-19T03:36:27;98728.59;;;22.66;56.43
31225;BME280;17847;31.524;74.366;2023-03-19T03:39:17;98726.44;;;22.78;55.47
31225;BME280;17847;31.524;74.366;2023-03-19T03:42:08;98720.75;;;23.00;55.53
31225;BME280;17847;31.524;74.366;2023-03-19T03:44:51;98730.19;;;23.12;55.11
31225;BME280;17847;31.524;74.366;2023-03-19T03:47:43;98728.00;;;23.19;54.51
31225;BME280;17847;31.524;74.366;2023-03-19T03:50:18;98732.38;;;23.05;54.46
31225;BME280;17847;31.524;74.366;2023-03-19T03:53:18;98733.94;;;23.21;54.48
31225;BME280;17847;31.524;74.366;2023-03-19T03:56:05;98741.50;;;23.29;54.30
31225;BME280;17847;31.524;74.366;2023-03-19T03:58:55;98741.50;;;23.24;52.16
31225;BME280;17847;31.524;74.366;2023-03-19T04:01:39;98744.25;;;23.14;55.00
31225;BME280;17847;31.524;74.366;2023-03-19T04:04:30;98742.63;;;23.18;53.82
31225;BME280;17847;31.524;74.366;2023-03-19T04:07:14;98742.88;;;23.22;53.94
31225;BME280;17847;31.524;74.366;2023-03-19T04:10:03;98742.88;;;23.27;52.22
31225;BME280;17847;31.524;74.366;2023-03-19T04:12:46;98742.31;;;23.30;53.26
31225;BME280;17847;31.524;74.366;2023-03-19T04:15:37;98751.19;;;23.51;54.21
31225;BME280;17847;31.524;74.366;2023-03-19T04:18:21;98746.84;;;23.55;54.17
31225;BME280;17847;31.524;74.366;2023-03-19T04:21:09;98744.13;;;23.60;54.52
31225;BME280;17847;31.524;74.366;2023-03-19T04:23:52;98751.13;;;23.76;54.08
31225;BME280;17847;31.524;74.366;2023-03-19T04:26:43;98753.84;;;23.71;54.19
31225;BME280;17847;31.524;74.366;2023-03-19T04:29:28;98754.09;;;23.80;53.90
31225;BME280;17847;31.524;74.366;2023-03-19T04:32:24;98758.19;;;23.62;53.94
31225;BME280;17847;31.524;74.366;2023-03-19T04:35:01;98744.38;;;23.68;52.91
31225;BME280;17847;31.524;74.366;2023-03-19T04:37:56;98746.47;;;23.87;53.77
31225;BME280;17847;31.524;74.366;2023-03-19T04:40:32;98754.28;;;23.93;54.18
31225;BME280;17847;31.524;74.366;2023-03-19T04:43:29;98745.50;;;24.22;53.80
31225;BME280;17847;31.524;74.366;2023-03-19T04:46:04;98749.00;;;24.27;53.60
31225;BME280;17847;31.524;74.366;2023-03-19T04:48:59;98748.47;;;24.25;49.50
31225;BME280;17847;31.524;74.366;2023-03-19T04:51:35;98762.94;;;24.49;52.79
31225;BME280;17847;31.524;74.366;2023-03-19T04:54:31;98753.66;;;24.60;52.57
31225;BME280;17847;31.524;74.366;2023-03-19T04:57:08;98759.81;;;24.66;52.10
31225;BME280;17847;31.524;74.366;2023-03-19T05:00:05;98756.94;;;24.52;52.03
31225;BME280;17847;31.524;74.366;2023-03-19T05:02:48;98758.25;;;24.60;50.37
31225;BME280;17847;31.524;74.366;2023-03-19T05:05:37;98752.75;;;24.70;51.57
31225;BME280;17847;31.524;74.366;2023-03-19T05:08:13;98760.25;;;24.44;46.26
31225;BME280;17847;31.524;74.366;2023-03-19T05:11:08;98759.41;;;24.49;49.21
31225;BME280;17847;31.524;74.366;2023-03-19T05:14:13;98755.13;;;25.11;49.49
31225;BME280;17847;31.524;74.366;2023-03-19T05:17:30;98759.72;;;24.81;50.10
31225;BME280;17847;31.524;74.366;2023-03-19T05:20:26;98757.44;;;24.98;46.89
31225;BME280;17847;31.524;74.366;2023-03-19T05:23:25;98759.75;;;25.39;48.92
31225;BME280;17847;31.524;74.366;2023-03-19T05:26:09;98760.84;;;24.75;45.65
31225;BME280;17847;31.524;74.366;2023-03-19T05:29:28;98752.63;;;24.90;45.52
31225;BME280;17847;31.524;74.366;2023-03-19T05:32:23;98751.56;;;25.15;47.76
31225;BME280;17847;31.524;74.366;2023-03-19T05:35:18;98740.91;;;25.24;45.91
31225;BME280;17847;31.524;74.366;2023-03-19T05:38:03;98751.00;;;25.18;44.73
31225;BME280;17847;31.524;74.366;2023-03-19T05:41:04;98741.91;;;25.62;46.16
31225;BME280;17847;31.524;74.366;2023-03-19T05:43:56;98743.59;;;26.19;46.15
31225;BME280;17847;31.524;74.366;2023-03-19T05:46:57;98738.75;;;25.26;44.89
31225;BME280;17847;31.524;74.366;2023-03-19T05:49:46;98734.53;;;25.38;48.67
31225;BME280;17847;31.524;74.366;2023-03-19T05:52:37;98739.97;;;25.86;46.32
31225;BME280;17847;31.524;74.366;2023-03-19T05:55:19;98731.41;;;25.98;47.17
31225;BME280;17847;31.524;74.366;2023-03-19T05:58:12;98734.13;;;25.98;45.00
31225;BME280;17847;31.524;74.366;2023-03-19T06:00:55;98737.91;;;25.54;44.59
31225;BME280;17847;31.524;74.366;2023-03-19T06:03:43;98730.16;;;26.09;46.00
31225;BME280;17847;31.524;74.366;2023-03-19T06:06:26;98738.72;;;25.49;44.74
31225;BME280;17847;31.524;74.366;2023-03-19T06:09:15;98731.78;;;25.67;45.39
31225;BME280;17847;31.524;74.366;2023-03-19T06:11:57;98726.13;;;25.40;46.51
31225;BME280;17847;31.524;74.366;2023-03-19T06:14:54;98719.13;;;25.81;46.94
31225;BME280;17847;31.524;74.366;2023-03-19T06:17:45;98720.25;;;26.18;45.29
31225;BME280;17847;31.524;74.366;2023-03-19T06:20:33;98722.34;;;26.26;43.49
31225;BME280;17847;31.524;74.366;2023-03-19T06:23:19;98709.63;;;26.40;46.59
31225;BME280;17847;31.524;74.366;2023-03-19T06:26:09;98713.53;;;26.34;44.42
31225;BME280;17847;31.524;74.366;2023-03-19T06:28:54;98714.13;;;26.31;46.41
31225;BME280;17847;31.524;74.366;2023-03-19T06:31:44;98701.03;;;26.52;45.04
31225;BME280;17847;31.524;74.366;2023-03-19T06:34:39;98695.72;;;26.60;47.53
31225;BME280;17847;31.524;74.366;2023-03-19T06:37:29;98692.50;;;26.58;47.74
31225;BME280;17847;31.524;74.366;2023-03-19T06:40:05;98696.59;;;26.42;44.62
31225;BME280;17847;31.524;74.366;2023-03-19T06:43:00;98696.09;;;26.16;45.35
31225;BME280;17847;31.524;74.366;2023-03-19T06:45:44;98696.84;;;25.84;44.63
31225;BME280;17847;31.524;74.366;2023-03-19T06:48:33;98693.97;;;25.94;46.49
31225;BME280;17847;31.524;74.366;2023-03-19T06:51:22;98694.25;;;25.74;46.94
31225;BME280;17847;31.524;74.366;2023-03-19T06:54:18;98694.19;;;25.98;45.00
31225;BME280;17847;31.524;74.366;2023-03-19T06:57:00;98689.28;;;25.81;49.32
31225;BME280;17847;31.524;74.366;2023-03-19T06:59:48;98688.53;;;25.94;46.60
31225;BME280;17847;31.524;74.366;2023-03-19T07:02:32;98670.88;;;25.97;49.79
31225;BME280;17847;31.524;74.366;2023-03-19T07:05:21;98677.38;;;25.77;47.90
31225;BME280;17847;31.524;74.366;2023-03-19T07:08:04;98672.19;;;26.00;48.47
31225;BME280;17847;31.524;74.366;2023-03-19T07:10:52;98677.41;;;26.33;48.51
31225;BME280;17847;31.524;74.366;2023-03-19T07:13:35;98670.81;;;26.21;44.97
31225;BME280;17847;31.524;74.366;2023-03-19T07:16:24;98662.97;;;26.01;44.38
31225;BME280;17847;31.524;74.366;2023-03-19T07:19:06;98665.81;;;26.09;49.06
31225;BME280;17847;31.524;74.366;2023-03-19T07:21:56;98665.53;;;25.92;46.82
31225;BME280;17847;31.524;74.366;2023-03-19T07:24:38;98654.16;;;25.90;47.27
31225;BME280;17847;31.524;74.366;2023-03-19T07:27:26;98653.94;;;25.86;45.43
31225;BME280;17847;31.524;74.366;2023-03-19T07:30:10;98654.94;;;25.90;45.33
31225;BME280;17847;31.524;74.366;2023-03-19T07:32:58;98645.50;;;25.69;46.45
31225;BME280;17847;31.524;74.366;2023-03-19T07:35:41;98634.81;;;25.54;45.53
31225;BME280;17847;31.524;74.366;2023-03-19T07:38:29;98630.63;;;25.43;45.63
31225;BME280;17847;31.524;74.366;2023-03-19T07:41:12;98623.56;;;25.42;48.28
31225;BME280;17847;31.524;74.366;2023-03-19T07:44:00;98612.06;;;25.50;48.09
31225;BME280;17847;31.524;74.366;2023-03-19T07:46:43;98610.44;;;25.30;46.94
31225;BME280;17847;31.524;74.366;2023-03-19T07:49:31;98610.59;;;25.39;45.94
31225;BME280;17847;31.524;74.366;2023-03-19T07:52:20;98613.06;;;25.59;47.79
31225;BME280;17847;31.524;74.366;2023-03-19T07:55:16;98598.19;;;25.57;48.54
31225;BME280;17847;31.524;74.366;2023-03-19T07:57:58;98596.28;;;25.57;47.33
31225;BME280;17847;31.524;74.366;2023-03-19T08:00:48;98596.91;;;25.49;47.13
31225;BME280;17847;31.524;74.366;2023-03-19T08:03:23;98580.56;;;25.35;48.13
31225;BME280;17847;31.524;74.366;2023-03-19T08:06:19;98576.81;;;25.50;47.29
31225;BME280;17847;31.524;74.366;2023-03-19T08:09:02;98581.94;;;25.52;47.08
31225;BME280;17847;31.524;74.366;2023-03-19T08:11:52;98569.47;;;24.89;46.88
31225;BME280;17847;31.524;74.366;2023-03-19T08:14:27;98562.69;;;25.11;47.17
31225;BME280;17847;31.524;74.366;2023-03-19T08:17:23;98552.88;;;25.15;46.80
31225;BME280;17847;31.524;74.366;2023-03-19T08:20:11;98552.31;;;25.18;45.96
31225;BME280;17847;31.524;74.366;2023-03-19T08:23:01;98547.03;;;25.08;47.04
31225;BME280;17847;31.524;74.366;2023-03-19T08:25:43;98542.31;;;25.56;48.18
31225;BME280;17847;31.524;74.366;2023-03-19T08:28:33;98536.59;;;25.76;48.21
31225;BME280;17847;31.524;74.366;2023-03-19T08:31:15;98535.94;;;25.84;47.92
31225;BME280;17847;31.524;74.366;2023-03-19T08:34:03;98525.25;;;25.55;47.74
31225;BME280;17847;31.524;74.366;2023-03-19T08:36:45;98527.63;;;25.38;47.16
31225;BME280;17847;31.524;74.366;2023-03-19T08:39:33;98517.81;;;25.42;48.24
31225;BME280;17847;31.524;74.366;2023-03-19T08:42:17;98513.63;;;25.49;49.88
31225;BME280;17847;31.524;74.366;2023-03-19T08:45:07;98505.72;;;25.34;48.71
31225;BME280;17847;31.524;74.366;2023-03-19T08:47:49;98505.34;;;25.03;45.66
31225;BME280;17847;31.524;74.366;2023-03-19T08:50:39;98500.34;;;25.11;46.66
31225;BME280;17847;31.524;74.366;2023-03-19T08:53:35;98488.63;;;25.15;47.22
31225;BME280;17847;31.524;74.366;2023-03-19T08:56:31;98488.22;;;25.08;46.96
31225;BME280;17847;31.524;74.366;2023-03-19T08:59:16;98485.19;;;24.91;47.73
31225;BME280;17847;31.524;74.366;2023-03-19T09:02:05;98477.88;;;24.91;47.25
31225;BME280;17847;31.524;74.366;2023-03-19T09:04:47;98464.97;;;25.02;48.39
31225;BME280;17847;31.524;74.366;2023-03-19T09:07:35;98471.44;;;25.25;49.72
31225;BME280;17847;31.524;74.366;2023-03-19T09:10:18;98459.50;;;25.26;48.89
31225;BME280;17847;31.524;74.366;2023-03-19T09:13:10;98451.34;;;25.07;49.07
31225;BME280;17847;31.524;74.366;2023-03-19T09:15:53;98446.75;;;25.08;47.71
31225;BME280;17847;31.524;74.366;2023-03-19T09:18:42;98437.34;;;25.19;48.33
31225;BME280;17847;31.524;74.366;2023-03-19T09:21:24;98434.63;;;25.19;47.75
31225;BME280;17847;31.524;74.366;2023-03-19T09:24:12;98437.34;;;25.19;46.48
31225;BME280;17847;31.524;74.366;2023-03-19T09:26:55;98417.06;;;25.35;47.64
31225;BME280;17847;31.524;74.366;2023-03-19T09:29:43;98415.66;;;25.56;48.14
31225;BME280;17847;31.524;74.366;2023-03-19T09:32:26;98406.53;;;25.66;49.27
31225;BME280;17847;31.524;74.366;2023-03-19T09:35:15;98406.72;;;25.56;49.01
31225;BME280;17847;31.524;74.366;2023-03-19T09:37:58;98400.28;;;25.33;46.08
31225;BME280;17847;31.524;74.366;2023-03-19T09:40:51;98394.72;;;25.24;46.89
31225;BME280;17847;31.524;74.366;2023-03-19T09:43:56;98401.69;;;25.12;47.48
31225;BME280;17847;31.524;74.366;2023-03-19T09:46:51;98392.00;;;25.24;49.36
31225;BME280;17847;31.524;74.366;2023-03-19T09:49:42;98385.63;;;25.34;49.17
31225;BME280;17847;31.524;74.366;2023-03-19T09:58:33;98378.56;;;25.33;49.42
31225;BME280;17847;31.524;74.366;2023-03-19T10:01:30;98372.81;;;25.21;48.02
31225;BME280;17847;31.524;74.366;2023-03-19T10:04:38;98367.00;;;25.27;50.02
31225;BME280;17847;31.524;74.366;2023-03-19T10:13:35;98359.56;;;25.19;49.72
31225;BME280;17847;31.524;74.366;2023-03-19T10:16:27;98358.88;;;25.27;49.90
31225;BME280;17847;31.524;74.366;2023-03-19T10:19:13;98360.06;;;25.21;49.66
31225;BME280;17847;31.524;74.366;2023-03-19T10:22:15;98356.47;;;25.26;48.60
31225;BME280;17847;31.524;74.366;2023-03-19T10:24:53;98357.94;;;25.18;49.12
31225;BME280;17847;31.524;74.366;2023-03-19T10:28:14;98356.41;;;25.31;49.71
31225;BME280;17847;31.524;74.366;2023-03-19T10:31:12;98353.56;;;25.36;49.49
31225;BME280;17847;31.524;74.366;2023-03-19T10:34:34;98349.56;;;25.33;48.77
31225;BME280;17847;31.524;74.366;2023-03-19T10:37:23;98344.94;;;25.34;49.10
31225;BME280;17847;31.524;74.366;2023-03-19T10:40:21;98342.41;;;25.24;47.82
31225;BME280;17847;31.524;74.366;2023-03-19T10:43:19;98333.69;;;25.27;47.59
31225;BME280;17847;31.524;74.366;2023-03-19T10:46:17;98330.50;;;25.38;49.26
31225;BME280;17847;31.524;74.366;2023-03-19T10:51:48;98320.75;;;25.37;49.46
31225;BME280;17847;31.524;74.366;2023-03-19T10:54:30;98318.66;;;25.34;49.98
31225;BME280;17847;31.524;74.366;2023-03-19T10:57:25;98320.13;;;25.27;50.36
31225;BME280;17847;31.524;74.366;2023-03-19T11:00:06;98315.81;;;25.26;49.60
31225;BME280;17847;31.524;74.366;2023-03-19T11:09:18;98313.94;;;25.08;51.26
31225;BME280;17847;31.524;74.366;2023-03-19T11:12:05;98305.59;;;24.85;49.02
31225;BME280;17847;31.524;74.366;2023-03-19T11:15:01;98310.38;;;24.93;50.50
31225;BME280;17847;31.524;74.366;2023-03-19T11:17:56;98311.53;;;24.87;50.83
31225;BME280;17847;31.524;74.366;2023-03-19T11:21:00;98316.78;;;24.79;50.22
31225;BME280;17847;31.524;74.366;2023-03-19T11:23:51;98313.31;;;24.78;51.43
31225;BME280;17847;31.524;74.366;2023-03-19T11:26:41;98314.88;;;24.79;50.57
31225;BME280;17847;31.524;74.366;2023-03-19T11:29:17;98306.06;;;24.74;50.50
31225;BME280;17847;31.524;74.366;2023-03-19T11:35:00;98303.34;;;24.92;51.01
31225;BME280;17847;31.524;74.366;2023-03-19T11:37:58;98302.84;;;24.90;50.78
31225;BME280;17847;31.524;74.366;2023-03-19T11:43:48;98302.97;;;24.80;51.01
31225;BME280;17847;31.524;74.366;2023-03-19T11:49:45;98299.63;;;24.51;53.08
31225;BME280;17847;31.524;74.366;2023-03-19T11:52:56;98296.75;;;24.42;55.08
31225;BME280;17847;31.524;74.366;2023-03-19T11:55:43;98298.84;;;24.27;56.71
31225;BME280;17847;31.524;74.366;2023-03-19T11:59:00;98293.63;;;24.11;54.46
31225;BME280;17847;31.524;74.366;2023-03-19T12:14:23;98298.59;;;23.81;57.18
31225;BME280;17847;31.524;74.366;2023-03-19T12:17:45;98302.22;;;23.71;56.75
31225;BME280;17847;31.524;74.366;2023-03-19T12:26:54;98305.66;;;23.53;58.35
31225;BME280;17847;31.524;74.366;2023-03-19T12:29:58;98314.56;;;23.53;59.64
31225;BME280;17847;31.524;74.366;2023-03-19T12:35:39;98305.47;;;23.39;58.45
31225;BME280;17847;31.524;74.366;2023-03-19T12:38:29;98306.88;;;23.37;59.62
31225;BME280;17847;31.524;74.366;2023-03-19T12:41:27;98303.91;;;23.33;59.83
31225;BME280;17847;31.524;74.366;2023-03-19T12:44:22;98310.69;;;23.31;59.28
31225;BME280;17847;31.524;74.366;2023-03-19T12:47:31;98302.41;;;23.22;60.21
31225;BME280;17847;31.524;74.366;2023-03-19T12:50:16;98303.47;;;23.21;61.19
31225;BME280;17847;31.524;74.366;2023-03-19T12:53:14;98298.94;;;23.16;61.67
31225;BME280;17847;31.524;74.366;2023-03-19T13:05:07;98314.28;;;22.92;61.79
31225;BME280;17847;31.524;74.366;2023-03-19T13:11:09;98300.47;;;22.94;62.49
31225;BME280;17847;31.524;74.366;2023-03-19T13:14:24;98307.19;;;23.01;62.37
31225;BME280;17847;31.524;74.366;2023-03-19T13:17:29;98303.00;;;22.80;59.23
31225;BME280;17847;31.524;74.366;2023-03-19T13:23:33;98309.72;;;22.88;62.40
31225;BME280;17847;31.524;74.366;2023-03-19T13:26:17;98309.44;;;22.84;62.49
31225;BME280;17847;31.524;74.366;2023-03-19T13:29:14;98317.59;;;22.79;60.79
31225;BME280;17847;31.524;74.366;2023-03-19T13:32:05;98313.53;;;22.81;62.52
31225;BME280;17847;31.524;74.366;2023-03-19T13:38:17;98311.13;;;22.75;62.53
31225;BME280;17847;31.524;74.366;2023-03-19T13:44:27;98318.97;;;22.66;61.35
31225;BME280;17847;31.524;74.366;2023-03-19T13:50:25;98320.84;;;22.76;63.51
31225;BME280;17847;31.524;74.366;2023-03-19T13:56:11;98323.53;;;22.81;63.04
31225;BME280;17847;31.524;74.366;2023-03-19T14:01:59;98324.38;;;22.66;62.45
31225;BME280;17847;31.524;74.366;2023-03-19T14:05:01;98331.13;;;22.74;62.71
31225;BME280;17847;31.524;74.366;2023-03-19T14:07:51;98331.66;;;22.76;63.38
31225;BME280;17847;31.524;74.366;2023-03-19T14:10:48;98331.16;;;22.64;61.32
31225;BME280;17847;31.524;74.366;2023-03-19T14:13:46;98334.38;;;22.71;62.22
31225;BME280;17847;31.524;74.366;2023-03-19T14:16:41;98335.19;;;22.71;63.26
31225;BME280;17847;31.524;74.366;2023-03-19T14:19:24;98343.00;;;22.68;62.26
31225;BME280;17847;31.524;74.366;2023-03-19T14:22:36;98343.00;;;22.68;63.56
31225;BME280;17847;31.524;74.366;2023-03-19T14:25:21;98348.16;;;22.64;62.66
31225;BME280;17847;31.524;74.366;2023-03-19T14:28:11;98355.19;;;22.65;63.37
31225;BME280;17847;31.524;74.366;2023-03-19T14:30:57;98352.75;;;22.64;63.58
31225;BME280;17847;31.524;74.366;2023-03-19T14:34:04;98353.31;;;22.61;63.71
31225;BME280;17847;31.524;74.366;2023-03-19T14:36:55;98372.50;;;22.59;62.69
31225;BME280;17847;31.524;74.366;2023-03-19T14:39:50;98376.28;;;22.58;63.58
31225;BME280;17847;31.524;74.366;2023-03-19T14:46:04;98381.91;;;22.62;63.86
31225;BME280;17847;31.524;74.366;2023-03-19T14:52:13;98384.63;;;22.62;63.75
31225;BME280;17847;31.524;74.366;2023-03-19T14:55:12;98391.94;;;22.61;64.25
31225;BME280;17847;31.524;74.366;2023-03-19T14:57:55;98397.84;;;22.63;64.14
31225;BME280;17847;31.524;74.366;2023-03-19T15:00:49;98391.75;;;22.43;62.29
31225;BME280;17847;31.524;74.366;2023-03-19T15:03:34;98395.25;;;22.43;63.14
31225;BME280;17847;31.524;74.366;2023-03-19T15:06:31;98395.50;;;22.47;61.84
31225;BME280;17847;31.524;74.366;2023-03-19T15:09:17;98399.28;;;22.46;62.35
31225;BME280;17847;31.524;74.366;2023-03-19T15:12:31;98410.38;;;22.39;62.88
31225;BME280;17847;31.524;74.366;2023-03-19T15:18:36;98412.84;;;22.30;63.10
31225;BME280;17847;31.524;74.366;2023-03-19T15:21:12;98412.56;;;22.32;63.91
31225;BME280;17847;31.524;74.366;2023-03-19T15:24:15;98414.19;;;22.28;63.09
31225;BME280;17847;31.524;74.366;2023-03-19T15:26:58;98408.28;;;22.21;63.12
31225;BME280;17847;31.524;74.366;2023-03-19T15:29:49;98418.53;;;22.24;63.82
31225;BME280;17847;31.524;74.366;2023-03-19T15:32:45;98414.75;;;22.25;63.65
31225;BME280;17847;31.524;74.366;2023-03-19T15:36:19;98417.47;;;22.20;64.25
31225;BME280;17847;31.524;74.366;2023-03-19T15:39:02;98412.06;;;22.20;62.65
31225;BME280;17847;31.524;74.366;2023-03-19T15:41:58;98415.56;;;22.20;62.46
31225;BME280;17847;31.524;74.366;2023-03-19T15:44:46;98423.13;;;22.18;64.22
31225;BME280;17847;31.524;74.366;2023-03-19T15:47:40;98421.47;;;22.22;64.51
31225;BME280;17847;31.524;74.366;2023-03-19T15:50:34;98419.84;;;22.26;65.12
31225;BME280;17847;31.524;74.366;2023-03-19T15:53:32;98413.91;;;22.29;65.00
31225;BME280;17847;31.524;74.366;2023-03-19T15:56:18;98408.78;;;22.28;64.81
31225;BME280;17847;31.524;74.366;2023-03-19T15:59:09;98408.81;;;22.23;65.17
31225;BME280;17847;31.524;74.366;2023-03-19T16:01:51;98407.75;;;22.19;65.44
31225;BME280;17847;31.524;74.366;2023-03-19T16:04:44;98401.00;;;22.16;65.15
31225;BME280;17847;31.524;74.366;2023-03-19T16:07:51;98401.84;;;22.12;64.55
31225;BME280;17847;31.524;74.366;2023-03-19T16:10:43;98405.34;;;22.12;65.72
31225;BME280;17847;31.524;74.366;2023-03-19T16:13:31;98395.91;;;22.10;65.79
31225;BME280;17847;31.524;74.366;2023-03-19T16:16:29;98395.63;;;22.11;65.80
31225;BME280;17847;31.524;74.366;2023-03-19T16:19:37;98389.16;;;22.12;65.79
31225;BME280;17847;31.524;74.366;2023-03-19T16:22:24;98386.47;;;22.12;66.03
31225;BME280;17847;31.524;74.366;2023-03-19T16:25:17;98382.66;;;22.13;66.14
31225;BME280;17847;31.524;74.366;2023-03-19T16:27:59;98374.31;;;22.10;64.89
31225;BME280;17847;31.524;74.366;2023-03-19T16:30:49;98375.09;;;22.20;66.10